Time;durP1;ratioP1;P1;durP2;ratioP2;P2;SDS_P1;SDS_P2;PMS_P1;PMS_P2;Temp;Humidity;BMP_temperature;BMP_pressure;BME280_temperature;BME280_humidity;BME280_pressure;Samples;Min_cycle;Max_cycle;Signal;HPM_P1;HPM_P2
2022/03/31 00:01:45;;;;;;;1999.90;999.90;;;;;;;4.80;55.09;99971.72;15396270;28;20054;-58
2022/03/31 00:09:21;;;;;;;1999.90;999.90;;;;;;;4.73;54.90;99964.97;15364937;29;20558;-60
2022/03/31 00:16:54;;;;;;;1999.90;999.90;;;;;;;4.72;54.68;99968.88;15379696;29;20492;-59
2022/03/31 00:24:27;;;;;;;1999.90;999.90;;;;;;;4.73;54.58;99968.56;15380746;28;20055;-61
2022/03/31 00:31:59;;;;;;;1999.90;999.90;;;;;;;4.57;54.88;99965.31;15380146;28;20051;-60
2022/03/31 00:39:35;;;;;;;1999.90;999.90;;;;;;;4.45;55.24;99958.69;15379953;28;20043;-61
2022/03/31 00:47:09;;;;;;;1999.90;999.90;;;;;;;4.45;54.71;99959.53;15379230;28;20107;-60
2022/03/31 00:54:43;;;;;;;1999.90;999.90;;;;;;;4.18;55.44;99952.13;15379327;28;20062;-61
2022/03/31 01:02:18;;;;;;;1999.90;999.90;;;;;;;3.93;55.41;99950.69;15393186;28;20043;-60
2022/03/31 01:09:52;;;;;;;1999.90;999.90;;;;;;;3.86;55.54;99966.88;15366155;28;20435;-59
2022/03/31 01:17:27;;;;;;;1999.90;999.90;;;;;;;3.88;55.21;99959.09;15377103;29;20090;-60
2022/03/31 01:25:04;;;;;;;1999.90;999.90;;;;;;;3.74;55.67;99953.53;15378259;29;20043;-58
2022/03/31 01:32:38;;;;;;;1999.90;999.90;;;;;;;3.59;55.79;99951.09;15377960;28;20078;-60
2022/03/31 01:40:13;;;;;;;1999.90;999.90;;;;;;;3.50;55.90;99941.06;15376928;28;20044;-61
2022/03/31 01:47:49;;;;;;;1999.90;999.90;;;;;;;3.53;55.76;99943.22;15376864;29;20058;-60
2022/03/31 01:55:28;;;;;;;1999.90;999.90;;;;;;;3.42;56.05;99948.91;15375863;28;20217;-60
2022/03/31 02:03:00;;;;;;;1999.90;999.90;;;;;;;3.23;56.40;99961.97;15376035;28;20055;-59
2022/03/31 02:10:33;;;;;;;1999.90;999.90;;;;;;;3.36;55.84;99966.69;15376442;28;20065;-60
2022/03/31 02:18:05;;;;;;;;;;;;;;;3.16;55.92;99961.53;15375246;28;20071;-60
2022/03/31 02:25:39;;;;;;;1999.90;999.90;;;;;;;3.05;55.85;99957.31;15402396;28;19954;-60
2022/03/31 02:33:13;;;;;;;1999.90;999.90;;;;;;;2.98;55.96;99956.88;15386357;29;20047;-59
2022/03/31 02:40:47;;;;;;;1999.90;999.90;;;;;;;3.02;55.79;99952.41;15385966;29;20073;-60
2022/03/31 02:48:19;;;;;;;1999.90;999.90;;;;;;;3.08;55.56;99957.53;15386746;29;20059;-60
2022/03/31 02:55:52;;;;;;;1999.90;999.90;;;;;;;2.77;56.18;99959.16;15390861;29;20058;-61
2022/03/31 03:03:25;;;;;;;1999.90;999.90;;;;;;;2.75;56.38;99962.22;15381552;28;20417;-60
2022/03/31 03:11:03;;;;;;;1999.90;999.90;;;;;;;2.83;56.12;99953.28;15375634;29;20114;-60
2022/03/31 03:18:36;;;;;;;1999.90;999.90;;;;;;;2.42;56.92;99955.00;15385234;28;20070;-61
2022/03/31 03:26:09;;;;;;;1999.90;999.90;;;;;;;2.48;56.86;99956.56;15438725;22;20047;-58
2022/03/31 03:33:42;;;;;;;1999.90;999.90;;;;;;;2.20;56.78;99956.41;15418567;28;20412;-56
2022/03/31 03:41:15;;;;;;;1999.90;999.90;;;;;;;2.44;56.56;99966.53;15420074;28;20424;-55
2022/03/31 03:48:47;;;;;;;1999.90;999.90;;;;;;;2.18;56.49;99947.59;15422120;28;20095;-56
2022/03/31 03:56:21;;;;;;;1999.90;999.90;;;;;;;2.18;56.50;99941.28;15439729;28;20054;-56
2022/03/31 04:03:53;;;;;;;;;;;;;;;2.06;56.30;99940.91;15433152;28;20046;-60
2022/03/31 04:11:29;;;;;;;1999.90;999.90;;;;;;;1.90;56.67;99934.78;15413402;28;19922;-60
2022/03/31 04:19:07;;;;;;;1999.90;999.90;;;;;;;1.94;55.83;99935.81;15458708;28;20141;-60
2022/03/31 04:26:41;;;;;;;1999.90;999.90;;;;;;;1.64;56.58;99932.31;15492428;28;20046;-60
2022/03/31 04:34:18;;;;;;;1999.90;999.90;;;;;;;1.70;56.84;99931.16;15460363;28;20619;-61
2022/03/31 04:41:52;;;;;;;1999.90;999.90;;;;;;;1.52;56.46;99936.59;15493275;28;20050;-58
2022/03/31 04:49:24;;;;;;;1999.90;999.90;;;;;;;1.35;56.80;99943.38;15433912;28;20068;-59
2022/03/31 04:56:58;;;;;;;1999.90;999.90;;;;;;;1.61;55.97;99943.09;15451787;28;20562;-60
2022/03/31 05:04:30;;;;;;;;;;;;;;;1.38;56.22;99951.06;15448455;28;20053;-60
2022/03/31 05:12:09;;;;;;;1999.90;999.90;;;;;;;1.53;56.17;99946.50;15427561;28;19930;-61
2022/03/31 05:19:41;;;;;;;1999.90;999.90;;;;;;;1.52;56.00;99959.41;15429519;28;20101;-59
2022/03/31 05:27:16;;;;;;;1999.90;999.90;;;;;;;1.76;55.22;99956.66;15456994;28;20069;-63
2022/03/31 05:34:52;;;;;;;1999.90;999.90;;;;;;;1.84;55.00;99957.97;15489124;28;20121;-60
2022/03/31 05:42:26;;;;;;;1999.90;999.90;;;;;;;1.81;54.87;99956.63;15489314;28;20042;-60
2022/03/31 05:49:58;;;;;;;1999.90;999.90;;;;;;;2.31;53.98;99962.59;15489237;28;20116;-60
2022/03/31 05:57:33;;;;;;;1999.90;999.90;;;;;;;2.20;54.15;99972.09;15488554;28;20105;-61
2022/03/31 06:05:06;;;;;;;1999.90;999.90;;;;;;;1.96;54.41;99978.44;15430042;28;20805;-61
2022/03/31 06:12:42;;;;;;;1999.90;999.90;;;;;;;2.43;53.54;99975.91;15409937;28;20468;-60
2022/03/31 06:20:14;;;;;;;1999.90;999.90;;;;;;;2.30;53.32;99978.28;15409195;28;20543;-61
2022/03/31 06:27:48;;;;;;;1999.90;999.90;;;;;;;2.52;53.59;99982.41;15426571;28;20119;-58
2022/03/31 06:35:22;;;;;;;1999.90;999.90;;;;;;;2.76;53.23;99968.53;15392570;28;20069;-60
2022/03/31 06:42:55;;;;;;;1999.90;999.90;;;;;;;3.39;51.44;99993.66;15408113;28;20051;-59
2022/03/31 06:50:28;;;;;;;;;;;;;;;3.40;51.50;99987.03;15408591;28;20051;-59
2022/03/31 06:58:02;;;;;;;1999.90;999.90;;;;;;;4.25;49.80;99979.28;15426163;28;20339;-55
2022/03/31 07:05:36;;;;;;;1999.90;999.90;;;;;;;4.00;49.98;99984.22;15486111;28;20054;-60
2022/03/31 07:13:10;;;;;;;1999.90;999.90;;;;;;;4.51;49.88;99977.63;15487060;28;20110;-60
2022/03/31 07:20:43;;;;;;;1999.90;999.90;;;;;;;5.04;48.21;99976.94;15422963;28;20145;-58
2022/03/31 07:28:17;;;;;;;1999.90;999.90;;;;;;;5.31;47.58;99966.84;15390576;28;20046;-58
2022/03/31 07:35:50;;;;;;;1999.90;999.90;;;;;;;5.77;46.14;99964.50;15416881;28;20046;-60
2022/03/31 07:43:24;;;;;;;1999.90;999.90;;;;;;;5.60;46.53;99963.59;15429565;28;20051;-60
2022/03/31 07:50:58;;;;;;;1999.90;999.90;;;;;;;5.67;45.97;99961.19;15422278;28;20656;-59
2022/03/31 07:58:32;;;;;;;1999.90;999.90;;;;;;;7.29;43.10;99962.91;15423880;28;20043;-60
2022/03/31 08:06:04;;;;;;;1999.90;999.90;;;;;;;6.81;44.82;99972.28;15435463;28;20051;-58
2022/03/31 08:13:38;;;;;;;1999.90;999.90;;;;;;;7.51;43.04;99968.28;15478976;28;20112;-60
2022/03/31 08:21:10;;;;;;;;;;;;;;;8.60;41.14;99962.06;15475617;28;20473;-61
2022/03/31 08:28:46;;;;;;;1999.90;999.90;;;;;;;7.90;42.24;99967.16;15474750;28;19932;-60
2022/03/31 08:36:19;;;;;;;1999.90;999.90;;;;;;;9.08;39.87;99969.03;15413678;28;20497;-59
2022/03/31 08:43:53;;;;;;;1999.90;999.90;;;;;;;8.95;39.50;99957.84;15414042;28;20097;-63
2022/03/31 08:51:26;;;;;;;1999.90;999.90;;;;;;;8.29;41.39;99956.81;15430231;28;20433;-60
2022/03/31 08:59:02;;;;;;;1999.90;999.90;;;;;;;8.91;41.12;99950.53;15413360;28;20137;-61
2022/03/31 09:06:34;;;;;;;1999.90;999.90;;;;;;;8.41;40.97;99953.34;15460042;28;20061;-60
2022/03/31 09:14:08;;;;;;;1999.90;999.90;;;;;;;8.90;40.81;99957.25;15490091;28;20050;-59
2022/03/31 09:21:50;;;;;;;1999.90;999.90;;;;;;;9.74;39.45;99966.22;15489098;28;20082;-54
2022/03/31 09:29:25;;;;;;;1999.90;999.90;;;;;;;9.83;38.59;99962.19;15473215;28;20131;-55
2022/03/31 09:36:57;;;;;;;1999.90;999.90;;;;;;;10.40;38.24;99957.69;15488849;28;20151;-59
2022/03/31 09:44:32;;;;;;;1999.90;999.90;;;;;;;10.76;37.98;99958.81;15470012;28;20050;-53
2022/03/31 09:52:09;;;;;;;1999.90;999.90;;;;;;;11.33;37.29;99952.88;15427160;28;20043;-57
2022/03/31 09:59:44;;;;;;;1999.90;999.90;;;;;;;11.74;37.46;99943.22;15410207;28;20042;-54
2022/03/31 10:07:17;;;;;;;1999.90;999.90;;;;;;;11.65;36.48;99950.94;15447647;28;20050;-55
2022/03/31 10:14:59;;;;;;;1999.90;999.90;;;;;;;11.53;36.62;99942.66;15409184;28;20104;-60
2022/03/31 10:30:26;;;;;;;1999.90;999.90;;;;;;;11.62;35.83;99937.72;15473525;28;20039;-58
2022/03/31 10:38:11;;;;;;;1999.90;999.90;;;;;;;11.91;36.19;99932.91;15392817;28;20138;-57
2022/03/31 10:45:45;;;;;;;1999.90;999.90;;;;;;;11.78;35.30;99927.38;15437431;28;20130;-55
2022/03/31 10:53:27;;;;;;;1999.90;999.90;;;;;;;12.81;35.01;99926.19;15429264;28;20055;-58
2022/03/31 11:01:03;;;;;;;1999.90;999.90;;;;;;;11.51;36.73;99936.63;15435853;28;20279;-56
2022/03/31 11:08:43;;;;;;;1999.90;999.90;;;;;;;10.86;36.59;99930.41;15433994;28;20054;-59
2022/03/31 11:16:21;;;;;;;1999.90;999.90;;;;;;;9.73;39.03;99912.50;15402370;28;20599;-59
2022/03/31 11:23:57;;;;;;;1999.90;999.90;;;;;;;9.90;39.00;99917.03;15375245;28;20433;-55
2022/03/31 11:31:31;;;;;;;1999.90;999.90;;;;;;;10.31;38.93;99915.97;15397221;28;20101;-56
2022/03/31 11:39:03;;;;;;;1999.90;999.90;;;;;;;10.43;38.39;99903.19;15406726;28;20527;-53
2022/03/31 11:46:47;;;;;;;1999.90;999.90;;;;;;;10.38;38.61;99902.25;15432197;28;20050;-56
2022/03/31 11:54:22;;;;;;;1999.90;999.90;;;;;;;9.42;40.66;99903.84;15421690;28;20039;-58
2022/03/31 12:01:56;;;;;;;1999.90;999.90;;;;;;;9.37;40.86;99881.78;15428178;28;20496;-55
2022/03/31 12:09:28;;;;;;;1999.90;999.90;;;;;;;9.42;41.52;99887.97;15429567;28;20055;-58
2022/03/31 12:17:02;;;;;;;1999.90;999.90;;;;;;;9.56;41.21;99876.47;15389444;28;20050;-61
2022/03/31 12:24:34;;;;;;;1999.90;999.90;;;;;;;9.55;41.27;99872.06;15427403;28;20531;-57
2022/03/31 12:32:10;;;;;;;;;;;;;;;9.75;41.09;99867.56;15427384;28;20058;-57
2022/03/31 12:39:43;;;;;;;1999.90;999.90;;;;;;;8.84;42.28;99867.59;15435699;28;19922;-58
2022/03/31 12:47:22;;;;;;;1999.90;999.90;;;;;;;9.05;41.86;99859.22;15429162;28;20380;-58
2022/03/31 12:54:56;;;;;;;1999.90;999.90;;;;;;;9.33;41.52;99853.81;15434105;28;20608;-55
2022/03/31 13:02:33;;;;;;;1999.90;999.90;;;;;;;9.01;42.15;99852.72;15407269;28;20035;-56
2022/03/31 13:10:06;;;;;;;1999.90;999.90;;;;;;;9.51;41.81;99838.53;15437183;28;20668;-54
2022/03/31 13:17:41;;;;;;;1999.90;999.90;;;;;;;9.37;41.40;99846.41;15402532;28;20050;-60
2022/03/31 13:25:13;;;;;;;1999.90;999.90;;;;;;;9.44;41.27;99824.38;15391614;28;20114;-60
2022/03/31 13:32:47;;;;;;;1999.90;999.90;;;;;;;9.44;41.53;99837.47;15386952;28;20043;-60
2022/03/31 13:40:19;;;;;;;;;;;;;;;9.54;40.59;99818.34;15396904;28;20050;-59
2022/03/31 13:47:53;;;;;;;1999.90;999.90;;;;;;;9.26;41.31;99815.41;15417636;28;20360;-58
2022/03/31 13:55:27;;;;;;;1999.90;999.90;;;;;;;8.83;41.83;99823.44;15423435;28;20134;-60
2022/03/31 14:03:01;;;;;;;1999.90;999.90;;;;;;;9.01;41.46;99822.09;15399131;28;20137;-60
2022/03/31 14:10:33;;;;;;;;;;;;;;;8.82;40.95;99814.28;15428584;28;20047;-60
2022/03/31 14:18:07;;;;;;;1999.90;999.90;;;;;;;8.62;42.29;99817.91;15392886;28;19922;-58
2022/03/31 14:25:40;;;;;;;1999.90;999.90;;;;;;;8.54;41.54;99814.06;15434475;28;20066;-59
2022/03/31 14:33:14;;;;;;;1999.90;999.90;;;;;;;8.34;41.69;99801.84;15431332;28;20038;-59
2022/03/31 14:40:50;;;;;;;1999.90;999.90;;;;;;;8.42;41.09;99797.31;15431099;28;20043;-59
2022/03/31 14:48:25;;;;;;;1999.90;999.90;;;;;;;8.60;40.15;99801.56;15418342;28;20062;-59
2022/03/31 14:55:58;;;;;;;1999.90;999.90;;;;;;;8.68;39.83;99800.69;15438985;28;20121;-58
2022/03/31 15:03:32;;;;;;;1999.90;999.90;;;;;;;8.59;38.52;99790.81;15436271;28;20039;-60
2022/03/31 15:18:56;;;;;;;1999.90;999.90;;;;;;;8.58;37.10;99790.00;15440516;28;20043;-59
2022/03/31 15:26:29;;;;;;;1999.90;999.90;;;;;;;8.28;35.30;99782.88;15537115;23;20053;-62
2022/03/31 15:34:02;;;;;;;1999.90;999.90;;;;;;;8.35;33.55;99780.41;15573620;28;20106;-61
2022/03/31 15:41:37;;;;;;;1999.90;999.90;;;;;;;8.26;33.20;99774.88;15554059;28;20123;-61
2022/03/31 15:49:11;;;;;;;1999.90;999.90;;;;;;;8.56;32.93;99781.19;15556622;28;20050;-61
2022/03/31 15:56:45;;;;;;;;;;;;;;;8.70;31.75;99793.97;15559107;28;20128;-62
2022/03/31 16:04:21;;;;;;;1999.90;999.90;;;;;;;8.52;31.25;99785.78;15552271;28;20482;-61
2022/03/31 16:11:53;;;;;;;1999.90;999.90;;;;;;;7.99;32.07;99787.34;15555878;28;20042;-62
2022/03/31 16:19:27;;;;;;;1999.90;999.90;;;;;;;8.43;30.99;99779.50;15560369;28;20048;-59
2022/03/31 16:27:03;;;;;;;1999.90;999.90;;;;;;;8.47;30.94;99791.56;15556000;28;20080;-61
2022/03/31 16:34:37;;;;;;;1999.90;999.90;;;;;;;8.27;31.16;99795.97;15558193;28;20650;-62
2022/03/31 16:42:09;;;;;;;1999.90;999.90;;;;;;;8.11;30.44;99792.97;15562110;28;20042;-61
2022/03/31 16:49:43;;;;;;;1999.90;999.90;;;;;;;8.06;29.41;99790.41;15567267;28;20041;-61
2022/03/31 16:57:15;;;;;;;1999.90;999.90;;;;;;;8.06;28.77;99801.53;15584254;28;20108;-60
2022/03/31 17:04:48;;;;;;;1999.90;999.90;;;;;;;7.94;28.77;99798.69;15558588;28;20405;-61
2022/03/31 17:12:22;;;;;;;1999.90;999.90;;;;;;;8.14;28.63;99793.47;15556231;28;20581;-61
2022/03/31 17:19:55;;;;;;;1999.90;999.90;;;;;;;8.08;28.49;99802.00;15550804;28;20049;-58
2022/03/31 17:27:28;;;;;;;1999.90;999.90;;;;;;;7.88;29.06;99801.97;15554873;28;20125;-61
2022/03/31 17:35:02;;;;;;;1999.90;999.90;;;;;;;8.01;29.17;99810.03;15552036;28;20390;-61
2022/03/31 17:42:34;;;;;;;1999.90;999.90;;;;;;;8.26;29.02;99812.97;15549716;28;20070;-60
2022/03/31 17:50:11;;;;;;;1999.90;999.90;;;;;;;7.84;29.11;99817.69;15558492;28;20053;-62
2022/03/31 17:57:45;;;;;;;1999.90;999.90;;;;;;;7.89;30.30;99832.19;15587693;28;20060;-58
2022/03/31 18:05:20;;;;;;;1999.90;999.90;;;;;;;7.75;30.79;99826.09;15561193;28;20073;-60
2022/03/31 18:12:54;;;;;;;1999.90;999.90;;;;;;;7.77;29.95;99841.25;15546311;28;20054;-60
2022/03/31 18:20:34;;;;;;;1999.90;999.90;;;;;;;7.93;29.70;99846.25;15531427;28;20069;-62
2022/03/31 18:28:08;;;;;;;1999.90;999.90;;;;;;;7.63;29.64;99856.53;15548393;28;20042;-62
2022/03/31 18:35:45;;;;;;;1999.90;999.90;;;;;;;7.97;28.99;99856.31;15552870;28;20045;-61
2022/03/31 18:43:18;;;;;;;1999.90;999.90;;;;;;;7.75;29.17;99859.41;15551298;28;20526;-60
2022/03/31 18:50:54;;;;;;;1999.90;999.90;;;;;;;7.75;29.66;99889.94;15546835;28;20125;-60
2022/03/31 18:58:28;;;;;;;1999.90;999.90;;;;;;;7.60;30.22;99868.28;15564986;28;20507;-59
2022/03/31 19:13:51;;;;;;;1999.90;999.90;;;;;;;7.40;31.75;99894.81;15562363;28;20136;-60
2022/03/31 19:21:25;;;;;;;1999.90;999.90;;;;;;;7.61;31.85;99904.06;15550473;28;20506;-61
2022/03/31 19:28:57;;;;;;;1999.90;999.90;;;;;;;7.07;32.90;99900.13;15554990;28;20056;-60
2022/03/31 19:36:31;;;;;;;1999.90;999.90;;;;;;;6.94;33.74;99910.28;15558580;28;20576;-64
2022/03/31 19:44:07;;;;;;;1999.90;999.90;;;;;;;6.98;33.19;99905.69;15557544;28;20048;-62
2022/03/31 19:51:41;;;;;;;1999.90;999.90;;;;;;;6.93;33.55;99925.28;15561281;28;20063;-62
2022/03/31 19:59:13;;;;;;;;;;;;;;;7.19;33.89;99919.69;15556958;28;20310;-62
2022/03/31 20:06:46;;;;;;;1999.90;999.90;;;;;;;6.51;36.11;99929.69;15569087;28;19928;-62
2022/03/31 20:14:19;;;;;;;1999.90;999.90;;;;;;;6.31;35.91;99911.75;15562330;28;20410;-64
2022/03/31 20:21:52;;;;;;;1999.90;999.90;;;;;;;6.37;35.31;99899.38;15560169;28;20069;-60
2022/03/31 20:29:28;;;;;;;1999.90;999.90;;;;;;;6.52;35.76;99928.53;15562467;28;20099;-62
2022/03/31 20:37:05;;;;;;;1999.90;999.90;;;;;;;6.30;37.04;99921.19;15562854;28;20414;-61
2022/03/31 20:44:38;;;;;;;1999.90;999.90;;;;;;;6.14;37.26;99929.13;15554793;28;20046;-60
2022/03/31 20:52:14;;;;;;;1999.90;999.90;;;;;;;6.04;37.93;99938.59;15557361;28;20062;-62
2022/03/31 20:59:46;;;;;;;1999.90;999.90;;;;;;;5.63;39.99;99949.97;15558240;28;20675;-61
2022/03/31 21:07:20;;;;;;;1999.90;999.90;;;;;;;5.83;39.55;99939.44;15559632;28;20510;-59
2022/03/31 21:14:52;;;;;;;1999.90;999.90;;;;;;;6.13;39.24;99955.19;15553379;28;20049;-60
2022/03/31 21:22:25;;;;;;;1999.90;999.90;;;;;;;5.37;44.68;99954.53;15536874;23;20423;-72
2022/03/31 21:29:57;;;;;;;1999.90;999.90;;;;;;;5.19;42.36;99931.47;15441998;28;20074;-72
2022/03/31 21:37:31;;;;;;;1999.90;999.90;;;;;;;5.79;40.52;99945.63;15439006;22;20141;-72
2022/03/31 21:45:04;;;;;;;1999.90;999.90;;;;;;;4.96;46.79;99974.91;15474353;28;20570;-71
2022/03/31 21:52:38;;;;;;;1999.90;999.90;;;;;;;4.62;49.76;99959.69;15502550;28;20049;-71
2022/03/31 22:00:44;;;;;;;1999.90;999.90;;;;;;;4.57;48.16;99956.22;15530486;28;20054;-71
2022/03/31 22:16:10;;;;;;;1999.90;999.90;;;;;;;5.27;42.86;99957.56;15487693;28;20050;-70
2022/03/31 22:23:44;;;;;;;1999.90;999.90;;;;;;;5.26;40.34;99939.34;15456303;28;20113;-70
2022/03/31 22:31:16;;;;;;;1999.90;999.90;;;;;;;5.19;40.77;99943.34;15462990;28;20058;-71
2022/03/31 22:38:50;;;;;;;1999.90;999.90;;;;;;;5.06;42.64;99948.97;15511840;28;20050;-70
2022/03/31 22:46:33;;;;;;;1999.90;999.90;;;;;;;4.97;41.53;99932.31;15526575;28;20046;-71
2022/03/31 22:54:08;;;;;;;1999.90;999.90;;;;;;;5.37;37.91;99929.63;15534001;28;20043;-71
2022/03/31 23:01:42;;;;;;;1999.90;999.90;;;;;;;5.75;37.15;99910.59;15496156;28;20042;-72
2022/03/31 23:09:17;;;;;;;1999.90;999.90;;;;;;;5.55;36.12;99925.00;15504857;28;20473;-71
2022/03/31 23:16:50;;;;;;;1999.90;999.90;;;;;;;5.70;34.86;99921.81;15555535;28;20555;-71
2022/03/31 23:24:23;;;;;;;1999.90;999.90;;;;;;;5.60;33.78;99924.84;15556115;28;20522;-71
2022/03/31 23:32:01;;;;;;;1999.90;999.90;;;;;;;5.65;33.58;99906.16;15552032;28;20431;-72
2022/03/31 23:39:35;;;;;;;1999.90;999.90;;;;;;;5.54;32.93;99904.81;15553922;28;20037;-71
2022/03/31 23:47:08;;;;;;;1999.90;999.90;;;;;;;5.76;32.07;99901.97;15495650;28;20046;-72
2022/03/31 23:54:41;;;;;;;1999.90;999.90;;;;;;;5.72;33.33;99903.72;15494908;28;20519;-70
